Latest Weather Observations for Orbost

IDV60801

Issued at 2:35 pm EST Thursday 24 April 2014 (issued every 30 minutes, with the page automatically refreshed every 10 minutes)

About weather observations | Map of weather stations | Latest weather observations for VIC | Other Formats
Station Details ID: 084145 Name: ORBOST Lat: -37.69 Lon: 148.47 Height: 62.65 m
Data from the previous 72 hours. | See also: Recent months at Orbost
Date/Time
EST
Temp
°C
App
Temp
°C
Dew
Point
Rel
Hum
%
Delta-T
°C
Wind Press
QNH
hPa
Press
MSL
hPa
Rain
since 9 am
mm
Dir
 
Spd
km/h
Gust
km/h
Spd
kts
Gust
kts
24/02:30pm 14.9 12.5 9.9 72 2.6 W 13 20 7 11 1015.6 - 0.0
24/02:00pm 14.2 12.1 9.8 75 2.3 W 11 20 6 11 1015.3 1015.2 0.0
24/01:30pm 14.0 10.1 9.6 75 2.3 W 20 32 11 17 1015.2 - 0.0
24/01:00pm 15.4 11.8 10.4 72 2.6 WSW 20 35 11 19 1014.7 1014.6 0.0
24/12:30pm 16.1 10.6 10.6 70 2.9 WSW 30 46 16 25 1014.1 - 0.0
24/12:06pm 16.6 11.5 10.7 68 3.2 SW 28 48 15 26 1013.6 - 0.0
24/12:00pm 16.4 11.7 10.5 68 3.1 SW 26 39 14 21 1013.5 1013.4 0.0
24/11:30am 18.7 13.6 7.5 48 5.7 WSW 24 37 13 20 1012.9 - 0.0
24/11:00am 21.7 18.0 7.9 41 7.2 WNW 17 22 9 12 1012.1 1012.0 0.0
24/10:30am 20.1 16.1 6.8 42 6.7 NW 17 26 9 14 1012.0 - 0.0
24/10:00am 19.8 16.2 6.9 43 6.5 NNW 15 26 8 14 1011.9 1011.8 0.0
24/09:30am 18.9 14.6 7.0 46 6.0 NNW 19 32 10 17 1011.9 - 0.0
24/09:00am 16.4 15.7 11.3 72 2.8 W 6 9 3 5 1011.8 1011.7 0.2
24/08:30am 13.8 13.8 11.1 84 1.4 W 2 6 1 3 1011.7 - 0.2
24/08:00am 12.3 11.5 10.9 91 0.7 N 6 7 3 4 1011.3 1011.2 0.2
24/07:30am 10.5 9.1 8.9 90 0.8 NNW 6 7 3 4 1011.1 - 0.2
24/07:00am 10.6 9.2 9.5 93 0.6 N 7 9 4 5 1010.9 1010.8 0.2
24/06:30am 10.7 10.0 9.9 95 0.4 N 4 6 2 3 1010.8 - 0.2
24/06:00am 10.9 9.8 10.6 98 0.2 N 7 11 4 6 1010.5 1010.4 0.2
24/05:30am 10.1 9.0 9.8 98 0.2 NNW 6 7 3 4 1010.5 - 0.2
24/05:00am 9.8 9.0 9.5 98 0.2 WNW 4 6 2 3 1010.3 1010.2 0.2
24/04:30am 10.4 10.1 10.1 98 0.2 NNW 2 4 1 2 1010.0 - 0.0
24/04:00am 11.3 11.6 11.0 98 0.2 CALM 0 0 0 0 1009.9 1009.8 0.0
24/03:30am 11.3 11.6 10.8 97 0.3 CALM 0 0 0 0 1010.0 - 0.0
24/03:00am 11.4 11.7 10.9 97 0.3 CALM 0 0 0 0 1010.3 1010.2 0.0
24/02:30am 11.4 11.7 10.9 97 0.3 CALM 0 0 0 0 1010.7 - 0.0
24/02:00am 11.6 11.2 11.0 96 0.3 N 4 6 2 3 1010.9 1010.8 0.0
24/01:30am 11.5 11.7 10.6 94 0.5 CALM 0 0 0 0 1011.3 - 0.0
24/01:00am 12.2 12.6 11.1 93 0.6 CALM 0 0 0 0 1011.6 1011.5 0.0
24/12:30am 11.8 12.1 11.0 95 0.4 CALM 0 2 0 1 1011.8 - 0.0
24/12:00am 12.1 12.1 11.3 95 0.4 ENE 2 4 1 2 1011.9 1011.8 0.0
 
Date/Time
EST
Temp
°C
App
Temp
°C
Dew
Point
Rel
Hum
%
Delta-T
°C
Wind Press
QNH
hPa
Press
MSL
hPa
Rain
since 9 am
mm
Dir
 
Spd
km/h
Gust
km/h
Spd
kts
Gust
kts
23/11:30pm 12.6 13.1 11.7 94 0.5 CALM 0 2 0 1 1012.3 - 0.0
23/11:00pm 12.9 12.1 11.8 93 0.6 NNE 7 9 4 5 1012.6 1012.5 0.0
23/10:30pm 13.2 12.8 12.3 94 0.5 N 6 6 3 3 1012.9 - 0.0
23/10:00pm 13.4 13.4 12.5 94 0.5 NNW 4 4 2 2 1013.2 1013.1 0.0
23/09:30pm 14.4 14.6 13.0 91 0.8 N 4 6 2 3 1013.3 - 0.0
23/09:00pm 14.9 14.8 13.3 90 0.9 N 6 7 3 4 1013.4 1013.3 0.0
23/08:30pm 15.2 15.3 13.9 92 0.7 N 6 6 3 3 1013.8 - 0.0
23/08:00pm 15.0 15.9 14.0 94 0.6 NW 2 4 1 2 1013.9 1013.8 0.0
23/07:30pm 14.8 15.2 13.8 94 0.6 NNW 4 4 2 2 1013.8 - 0.0
23/07:00pm 15.3 15.8 14.0 92 0.7 N 4 4 2 2 1013.8 1013.7 0.0
23/06:30pm 15.5 16.4 14.0 91 0.8 NW 2 4 1 2 1013.7 - 0.0
23/06:00pm 16.1 17.3 13.9 87 1.2 CALM 0 2 0 1 1013.6 1013.5 0.0
23/05:30pm 16.5 17.0 14.0 85 1.4 SSW 4 4 2 2 1013.6 - 0.0
23/05:00pm 16.9 17.4 14.0 83 1.7 S 4 6 2 3 1013.4 1013.3 0.0
23/04:30pm 17.1 17.5 13.8 81 1.9 SSE 4 9 2 5 1013.0 - 0.0
23/04:00pm 17.6 17.5 13.9 79 2.1 S 7 9 4 5 1012.9 1012.8 0.0
23/03:30pm 18.2 18.2 13.7 75 2.6 SSE 6 11 3 6 1012.9 - 0.0
23/03:00pm 18.6 18.6 14.3 76 2.5 SSE 7 17 4 9 1012.8 1012.7 0.0
23/02:30pm 18.9 18.7 14.6 76 2.5 S 9 17 5 9 1012.8 - 0.0
23/02:00pm 19.0 18.7 14.5 75 2.6 S 9 17 5 9 1012.9 1012.8 0.0
23/01:30pm 18.7 18.5 14.6 77 2.4 S 9 13 5 7 1013.1 - 0.0
23/01:00pm 20.5 21.3 13.7 65 3.9 W 2 11 1 6 1013.4 1013.3 0.0
23/12:30pm 18.9 19.0 12.6 67 3.5 ESE 4 9 2 5 1014.0 - 0.0
23/12:00pm 18.8 18.7 13.2 70 3.2 E 6 7 3 4 1014.5 1014.4 0.0
23/11:30am 17.3 17.4 12.6 74 2.6 S 4 6 2 3 1015.0 - 0.0
23/11:00am 17.2 17.0 13.1 77 2.3 SSW 6 7 3 4 1015.5 1015.4 0.0
23/10:30am 17.3 17.5 13.2 77 2.3 NE 4 6 2 3 1015.9 - 0.0
23/10:00am 17.3 17.9 14.2 82 1.8 E 4 6 2 3 1016.1 1016.0 0.0
23/09:30am 15.8 16.4 14.2 90 0.9 SE 4 7 2 4 1016.4 - 0.0
23/09:00am 15.0 15.9 13.9 93 0.6 ESE 2 4 1 2 1016.5 1016.4 2.6
23/08:30am 14.4 15.7 14.1 98 0.2 CALM 0 0 0 0 1016.7 - 2.6
23/08:00am 14.1 14.9 13.8 98 0.2 NNW 2 4 1 2 1016.7 1016.6 2.6
23/07:30am 13.8 14.8 13.3 97 0.3 CALM 0 0 0 0 1016.5 - 2.6
23/07:00am 13.6 14.6 13.1 97 0.3 CALM 0 2 0 1 1016.3 1016.2 2.6
23/06:30am 13.5 14.4 13.0 97 0.3 CALM 0 2 0 1 1016.3 - 2.6
23/06:00am 13.6 14.6 13.1 97 0.3 CALM 0 0 0 0 1016.3 1016.2 2.6
23/05:30am 13.8 14.8 13.3 97 0.3 CALM 0 0 0 0 1016.5 - 2.6
23/05:00am 13.7 14.7 13.2 97 0.3 CALM 0 0 0 0 1016.5 1016.4 2.6
23/04:30am 13.9 14.6 13.4 97 0.3 N 2 4 1 2 1016.6 - 2.6
23/04:00am 14.0 15.1 13.5 97 0.3 CALM 0 0 0 0 1016.6 1016.5 2.6
23/03:30am 14.0 15.1 13.5 97 0.3 CALM 0 0 0 0 1016.8 - 2.6
23/03:00am 14.1 15.2 13.6 97 0.3 CALM 0 0 0 0 1016.8 1016.7 2.6
23/02:30am 14.0 15.1 13.4 96 0.3 CALM 0 0 0 0 1017.1 - 2.6
23/02:00am 14.0 15.1 13.4 96 0.3 CALM 0 0 0 0 1017.2 1017.1 2.6
23/01:30am 13.8 14.4 13.0 95 0.4 N 2 4 1 2 1017.4 - 2.4
23/01:00am 13.9 14.5 13.0 94 0.5 NNW 2 4 1 2 1017.5 1017.4 2.4
23/12:30am 14.4 15.0 13.1 92 0.7 W 2 6 1 3 1017.9 - 1.4
23/12:00am 14.7 15.6 12.9 89 1.0 CALM 0 4 0 2 1017.9 1017.8 0.0
 
Date/Time
EST
Temp
°C
App
Temp
°C
Dew
Point
Rel
Hum
%
Delta-T
°C
Wind Press
QNH
hPa
Press
MSL
hPa
Rain
since 9 am
mm
Dir
 
Spd
km/h
Gust
km/h
Spd
kts
Gust
kts
22/11:30pm 14.9 15.1 13.1 89 1.0 W 4 7 2 4 1017.7 - 0.0
22/11:00pm 14.9 15.9 13.1 89 1.0 CALM 0 4 0 2 1017.7 1017.6 0.0
22/10:30pm 14.7 14.9 13.1 90 0.9 N 4 6 2 3 1017.8 - 0.0
22/10:00pm 14.8 15.3 12.8 88 1.1 WNW 2 4 1 2 1017.9 1017.8 0.0
22/09:30pm 14.5 14.6 12.7 89 1.0 WNW 4 6 2 3 1017.8 - 0.0
22/09:00pm 14.6 14.6 12.5 87 1.1 NW 4 6 2 3 1017.6 1017.5 0.0
22/08:30pm 15.5 15.7 13.0 85 1.4 WNW 4 7 2 4 1017.2 - 0.0
22/08:00pm 15.3 15.1 13.0 86 1.3 N 6 7 3 4 1017.0 1016.9 0.0
22/07:30pm 15.4 15.0 12.5 83 1.6 WSW 6 9 3 5 1016.8 - 0.0
22/07:00pm 16.2 16.1 12.0 76 2.3 S 4 7 2 4 1016.3 1016.2 0.0
22/06:30pm 16.5 15.9 10.4 67 3.2 S 4 9 2 5 1015.7 - 0.0
22/06:00pm 16.1 15.1 10.4 69 3.0 SSW 6 9 3 5 1015.2 1015.1 0.0
22/05:30pm 16.4 16.1 11.3 72 2.8 ESE 4 7 2 4 1014.3 - 0.0
22/05:00pm 17.2 16.9 11.5 69 3.1 SSE 4 7 2 4 1013.7 1013.6 0.0
22/04:30pm 17.7 17.3 11.0 65 3.6 ESE 4 9 2 5 1013.5 - 0.0
22/04:00pm 18.1 17.6 10.7 62 4.0 ESE 4 6 2 3 1013.5 1013.4 0.0
22/03:30pm 18.6 18.3 11.4 63 3.9 E 4 6 2 3 1013.6 - 0.0
22/03:00pm 19.2 18.9 11.5 61 4.2 ESE 4 9 2 5 1013.7 1013.6 0.0
22/02:30pm 18.7 18.6 12.2 66 3.6 ESE 4 7 2 4 1013.8 - 0.0
22/02:00pm 18.8 18.5 11.4 62 4.1 ESE 4 6 2 3 1013.9 1013.8 0.0
22/01:30pm 19.1 18.7 11.2 60 4.3 ENE 4 7 2 4 1014.0 - 0.0
22/01:00pm 19.5 19.2 10.2 55 5.0 SE 2 4 1 2 1014.5 1014.4 0.0
22/12:30pm 19.1 18.1 10.4 57 4.7 SE 6 7 3 4 1014.8 - 0.0
22/12:00pm 19.1 18.0 9.9 55 4.9 S 6 7 3 4 1015.1 1015.0 0.0
22/11:30am 19.7 18.4 7.8 46 6.1 NNW 4 6 2 3 1015.3 - 0.0
22/11:00am 19.7 18.5 8.1 47 6.0 NW 4 7 2 4 1015.6 1015.5 0.0
22/10:30am 18.9 17.2 7.7 48 5.7 WSW 6 11 3 6 1015.8 - 0.0
22/10:00am 18.3 16.4 7.4 49 5.5 WNW 7 13 4 7 1015.7 1015.6 0.0
22/09:30am 18.0 15.6 6.8 48 5.6 SW 9 17 5 9 1016.1 - 0.0
22/09:00am 16.8 14.6 7.7 55 4.6 S 9 15 5 8 1015.5 1015.4 0.0
22/08:30am 18.1 15.9 6.0 45 6.0 W 7 19 4 10 1014.8 - 0.0
22/08:00am 18.7 16.9 5.2 41 6.6 W 4 9 2 5 1014.3 1014.2 0.0
22/07:30am 17.7 15.6 5.9 46 5.8 W 6 9 3 5 1014.1 - 0.0
22/07:00am 17.0 15.9 7.1 52 4.9 NW 2 6 1 3 1013.7 1013.6 0.0
22/06:30am 16.6 15.5 7.0 53 4.8 S 2 6 1 3 1013.5 - 0.0
22/06:00am 16.9 16.2 7.0 52 4.9 CALM 0 0 0 0 1013.4 1013.3 0.0
22/05:30am 17.0 16.0 7.4 53 4.8 NNE 2 9 1 5 1013.5 - 0.0
22/05:00am 17.9 16.0 6.7 48 5.6 N 6 7 3 4 1013.5 1013.4 0.0
22/04:30am 17.3 15.9 7.1 51 5.1 NNE 4 7 2 4 1013.4 - 0.0
22/04:00am 16.9 15.9 7.3 53 4.8 NNW 2 7 1 4 1013.4 1013.3 0.0
22/03:30am 16.5 14.8 7.7 56 4.4 N 6 9 3 5 1013.4 - 0.0
22/03:00am 14.4 13.2 7.9 65 3.2 E 4 6 2 3 1013.6 1013.5 0.0
22/02:30am 16.2 14.9 7.7 57 4.3 N 4 7 2 4 1013.9 - 0.0
22/02:00am 14.3 13.0 7.8 65 3.2 E 4 6 2 3 1014.2 1014.1 0.0
22/01:30am 14.4 13.4 7.2 62 3.5 E 2 4 1 2 1014.4 - 0.0
22/01:00am 15.5 14.6 6.0 53 4.6 CALM 0 0 0 0 1014.6 1014.5 0.0
22/12:30am 14.1 13.5 7.2 63 3.4 CALM 0 0 0 0 1014.7 - 0.0
22/12:00am 14.6 13.8 6.7 59 3.8 CALM 0 2 0 1 1014.7 1014.6 0.0
 
Date/Time
EST
Temp
°C
App
Temp
°C
Dew
Point
Rel
Hum
%
Delta-T
°C
Wind Press
QNH
hPa
Press
MSL
hPa
Rain
since 9 am
mm
Dir
 
Spd
km/h
Gust
km/h
Spd
kts
Gust
kts
21/11:30pm 14.7 13.7 7.5 62 3.6 SSW 2 6 1 3 1014.8 - 0.0
21/11:00pm 12.6 12.4 9.1 79 1.8 CALM 0 6 0 3 1014.9 1014.8 0.0
21/10:30pm 13.4 13.3 9.3 76 2.1 CALM 0 0 0 0 1015.5 - 0.0
21/10:00pm 12.9 12.9 9.9 82 1.5 CALM 0 0 0 0 1015.7 1015.6 0.0
21/09:30pm 12.8 12.9 10.3 85 1.3 CALM 0 0 0 0 1015.9 - 0.0
21/09:00pm 12.7 12.4 10.1 84 1.3 NNW 2 4 1 2 1016.2 1016.1 0.0
21/08:30pm 13.0 13.1 10.2 83 1.4 CALM 0 0 0 0 1016.4 - 0.0
21/08:00pm 13.6 12.8 11.0 84 1.4 NNE 6 7 3 4 1016.3 1016.2 0.0
21/07:30pm 13.5 12.9 11.6 88 1.0 NNE 6 7 3 4 1016.6 - 0.0
21/07:00pm 13.4 12.8 11.6 89 1.0 NNE 6 9 3 5 1016.7 1016.6 0.0
21/06:30pm 13.8 13.8 11.3 85 1.3 ENE 2 4 1 2 1016.8 - 0.0
21/06:00pm 14.6 14.9 10.8 78 2.0 CALM 0 0 0 0 1016.7 1016.6 0.0
21/05:30pm 16.0 16.0 11.2 73 2.6 ESE 2 6 1 3 1016.4 - 0.0
21/05:00pm 17.1 16.4 11.4 69 3.1 E 6 9 3 5 1016.0 1015.9 0.0
21/04:30pm 18.6 18.5 12.1 66 3.6 E 4 7 2 4 1015.9 - 0.0
21/04:00pm 19.2 18.5 11.5 61 4.2 E 6 7 3 4 1016.1 1016.0 0.0
21/03:30pm 19.3 18.1 10.3 56 4.9 ENE 7 11 4 6 1016.2 - 0.0
21/03:00pm 19.2 17.8 9.7 54 5.1 E 7 13 4 7 1016.7 1016.6 0.0

Other Formats:

Comma delimited format used in spreadsheet applications
http://www.bom.gov.au/fwo/IDV60801/IDV60801.95918.axf

JavaScript Object Notation format (JSON) in row-major order
http://www.bom.gov.au/fwo/IDV60801/IDV60801.95918.json